Time;durP1;ratioP1;P1;durP2;ratioP2;P2;SDS_P1;SDS_P2;PMS_P1;PMS_P2;Temp;Humidity;BMP_temperature;BMP_pressure;BME280_temperature;BME280_humidity;BME280_pressure;Samples;Min_cycle;Max_cycle;Signal;HPM_P1;HPM_P2
2021/12/24 00:00:16;;;;;;;12.98;11.77;;;;;;;6.29;72.19;97906.84;4139535;28;20197;-85
2021/12/24 00:02:18;;;;;;;12.52;11.35;;;;;;;6.24;72.42;97904.00;4141800;28;20277;-86
2021/12/24 00:04:21;;;;;;;12.50;11.45;;;;;;;6.27;72.24;97903.53;4143884;28;20235;-85
2021/12/24 00:06:23;;;;;;;12.35;11.25;;;;;;;6.25;72.42;97911.09;4147278;28;20320;-85
2021/12/24 00:08:25;;;;;;;12.25;11.18;;;;;;;6.36;72.20;97902.13;4158858;28;20218;-85
2021/12/24 00:10:27;;;;;;;11.85;10.75;;;;;;;6.35;72.21;97908.63;4127124;28;20211;-86
2021/12/24 00:12:32;;;;;;;10.75;9.85;;;;;;;6.30;72.29;97903.06;4146064;28;20216;-85
2021/12/24 00:14:34;;;;;;;12.23;10.88;;;;;;;6.25;72.68;97906.50;4126058;28;20814;-85
2021/12/24 00:16:41;;;;;;;15.25;11.30;;;;;;;6.27;72.78;97911.66;4131250;28;20212;-86
2021/12/24 00:18:49;;;;;;;12.93;11.82;;;;;;;6.38;72.58;97899.97;4158083;28;20217;-86
2021/12/24 00:22:06;;;;;;;10.93;10.02;;;;;;;6.34;72.79;97898.78;4122426;28;20203;-86
2021/12/24 00:37:10;;;;;;;12.50;10.70;;;;;;;6.35;72.79;97895.03;4164403;28;20212;-84
2021/12/24 00:39:11;;;;;;;13.13;12.02;;;;;;;6.43;72.62;97881.06;4166192;28;20199;-84
2021/12/24 00:41:13;;;;;;;10.40;9.50;;;;;;;6.46;72.79;97875.16;4159748;28;20205;-83
2021/12/24 00:43:16;;;;;;;10.65;9.57;;;;;;;6.39;73.02;97869.84;4166770;28;20221;-85
2021/12/24 00:45:20;;;;;;;10.65;9.75;;;;;;;6.51;72.63;97872.53;4142874;28;20232;-86
2021/12/24 00:47:22;;;;;;;10.45;9.57;;;;;;;6.54;72.32;97869.31;4159818;28;20683;-85
2021/12/24 00:49:23;;;;;;;19.33;11.02;;;;;;;6.55;72.82;97876.44;4145573;28;20213;-85
2021/12/24 00:55:46;;;;;;;10.52;9.60;;;;;;;6.52;72.53;97887.78;4146190;28;20257;-85
2021/12/24 00:57:50;;;;;;;10.88;9.95;;;;;;;6.55;72.78;97879.16;4155933;28;20236;-86
2021/12/24 00:59:52;;;;;;;11.40;10.35;;;;;;;6.61;72.43;97883.59;4145841;28;20206;-86
2021/12/24 01:01:54;;;;;;;9.75;8.85;;;;;;;6.59;72.31;97880.31;4177573;28;20228;-85
2021/12/24 01:03:55;;;;;;;9.73;9.02;;;;;;;6.64;72.47;97888.59;4152075;28;20767;-85
2021/12/24 01:05:57;;;;;;;13.38;12.18;;;;;;;6.63;72.50;97887.75;4127219;28;20297;-85
2021/12/24 01:07:59;;;;;;;10.15;9.43;;;;;;;6.65;72.67;97873.91;4141263;28;20205;-86
2021/12/24 01:10:01;;;;;;;11.45;10.32;;;;;;;6.65;72.66;97879.34;4161857;28;20309;-85
2021/12/24 01:12:07;;;;;;;10.20;9.40;;;;;;;6.67;72.30;97871.78;4141602;28;20847;-85
2021/12/24 01:14:09;;;;;;;10.07;9.23;;;;;;;6.67;72.42;97880.75;4157870;28;20221;-86
2021/12/24 01:16:21;;;;;;;9.90;9.00;;;;;;;6.67;72.83;97882.66;4145644;28;20213;-87
2021/12/24 01:20:52;;;;;;;9.52;8.57;;;;;;;6.69;72.93;97870.47;4144345;28;20204;-86
2021/12/24 01:25:14;;;;;;;9.55;8.82;;;;;;;6.72;72.64;97878.16;4138672;28;20818;-87
2021/12/24 01:27:33;;;;;;;9.27;8.57;;;;;;;6.72;72.66;97880.03;4144815;28;20273;-86
2021/12/24 01:30:05;;;;;;;9.95;9.07;;;;;;;6.76;73.29;97875.78;4148859;28;20207;-86
2021/12/24 01:42:39;;;;;;;9.50;8.65;;;;;;;6.82;74.41;97896.56;4149145;28;20209;-86
2021/12/24 01:43:36;;;;;;;10.60;9.70;;;;;;;6.76;74.65;97881.22;4149523;28;20236;-86
2021/12/24 01:45:39;;;;;;;11.30;10.25;;;;;;;6.85;74.68;97887.91;4144794;28;20799;-88
2021/12/24 01:47:45;;;;;;;11.02;9.70;;;;;;;6.84;74.83;97883.56;4131278;28;20201;-86
2021/12/24 01:49:47;;;;;;;11.43;10.52;;;;;;;6.78;75.75;97879.06;4143325;28;20201;-85
2021/12/24 01:51:49;;;;;;;11.05;10.15;;;;;;;6.75;75.85;97879.56;4146864;28;20208;-86
2021/12/24 01:53:50;;;;;;;11.10;10.20;;;;;;;6.67;76.13;97882.66;4125677;28;20762;-87
2021/12/24 01:55:53;;;;;;;11.55;10.55;;;;;;;6.66;76.53;97881.84;4163226;28;20204;-87
2021/12/24 01:57:55;;;;;;;10.57;9.48;;;;;;;6.60;77.31;97880.09;4152030;28;20209;-86
2021/12/24 02:00:01;;;;;;;11.45;10.20;;;;;;;6.62;77.16;97879.84;4160833;28;20240;-87
2021/12/24 02:02:03;;;;;;;12.73;11.68;;;;;;;6.54;77.55;97872.03;4141314;28;20252;-87
2021/12/24 02:04:05;;;;;;;13.30;12.20;;;;;;;6.49;77.94;97869.25;4162644;28;20228;-87
2021/12/24 02:06:08;;;;;;;12.68;11.57;;;;;;;6.48;78.32;97859.44;4131721;28;20253;-86
2021/12/24 02:08:12;;;;;;;13.02;11.85;;;;;;;6.54;78.44;97855.75;4131176;28;20233;-86
2021/12/24 02:10:15;;;;;;;14.25;12.70;;;;;;;6.51;78.62;97850.81;4147513;28;20197;-86
2021/12/24 02:12:17;;;;;;;13.50;12.45;;;;;;;6.50;78.41;97857.31;4146748;28;20211;-86
2021/12/24 02:14:22;;;;;;;14.13;12.82;;;;;;;6.44;78.84;97850.13;4144091;28;20301;-86
2021/12/24 02:28:36;;;;;;;13.20;11.77;;;;;;;6.48;79.14;97835.00;4145084;28;20205;-88
2021/12/24 02:30:36;;;;;;;15.07;12.48;;;;;;;6.45;79.10;97840.88;4144572;28;20209;-87
2021/12/24 02:32:42;;;;;;;13.15;11.15;;;;;;;6.52;79.48;97836.13;4129247;28;20238;-86
2021/12/24 02:34:43;;;;;;;13.90;12.40;;;;;;;6.45;79.23;97835.47;4145296;28;20242;-87
2021/12/24 02:36:53;;;;;;;13.80;12.63;;;;;;;6.61;79.45;97829.25;4142983;28;20213;-86
2021/12/24 02:38:55;;;;;;;11.88;10.88;;;;;;;6.60;79.25;97827.59;4142752;28;20200;-87
2021/12/24 02:40:58;;;;;;;12.32;11.32;;;;;;;6.54;79.35;97829.41;4147573;28;20666;-87
2021/12/24 02:43:00;;;;;;;11.45;10.55;;;;;;;6.58;79.16;97835.19;4161549;28;20728;-87
2021/12/24 02:45:02;;;;;;;12.85;11.77;;;;;;;6.59;78.80;97821.34;4140882;28;20228;-87
2021/12/24 02:47:12;;;;;;;12.90;11.65;;;;;;;6.50;79.15;97822.78;4142043;28;20295;-87
2021/12/24 02:49:18;;;;;;;13.18;12.00;;;;;;;6.55;79.05;97819.38;4129885;28;20233;-86
2021/12/24 02:54:02;;;;;;;12.07;11.07;;;;;;;6.60;79.11;97806.69;4147637;28;20231;-85
2021/12/24 02:56:05;;;;;;;13.02;12.00;;;;;;;6.64;78.87;97801.59;4145374;28;20205;-85
2021/12/24 02:58:06;;;;;;;11.77;10.77;;;;;;;6.66;79.23;97810.31;4158941;28;20573;-87
2021/12/24 03:00:15;;;;;;;16.05;12.68;;;;;;;6.62;79.06;97814.63;4161705;28;20224;-86
2021/12/24 03:02:17;;;;;;;14.68;13.40;;;;;;;6.65;79.12;97805.97;4146665;28;20209;-86
2021/12/24 03:04:19;;;;;;;12.25;11.18;;;;;;;6.64;78.91;97796.16;4120012;28;20230;-86
2021/12/24 03:06:26;;;;;;;13.30;12.20;;;;;;;6.69;78.43;97799.78;4129930;28;20217;-86
2021/12/24 03:08:28;;;;;;;12.93;11.60;;;;;;;6.74;78.31;97807.22;4146434;28;20340;-87
2021/12/24 03:10:30;;;;;;;13.02;11.55;;;;;;;6.70;78.52;97795.19;4130138;28;20297;-87
2021/12/24 03:12:32;;;;;;;15.07;13.68;;;;;;;6.74;78.42;97790.91;4139233;28;20655;-87
2021/12/24 03:14:34;;;;;;;12.23;11.23;;;;;;;6.78;78.23;97797.50;4153095;28;20229;-86
2021/12/24 03:16:37;;;;;;;13.48;12.40;;;;;;;6.80;78.50;97806.25;4142722;28;20236;-87
2021/12/24 03:18:41;;;;;;;11.65;10.60;;;;;;;6.73;78.70;97794.69;4143252;28;20210;-86
2021/12/24 03:20:44;;;;;;;13.85;12.63;;;;;;;6.75;78.85;97793.38;4143688;28;20205;-87
2021/12/24 03:23:07;;;;;;;35.22;12.55;;;;;;;6.87;78.58;97790.59;4127776;28;20324;-86
2021/12/24 03:25:08;;;;;;;13.20;12.02;;;;;;;6.83;78.06;97789.47;4130567;28;20256;-86
2021/12/24 03:27:12;;;;;;;15.90;11.23;;;;;;;6.83;78.42;97786.75;4156154;28;20224;-86
2021/12/24 03:29:16;;;;;;;14.18;12.98;;;;;;;6.79;78.59;97778.25;4139444;28;21213;-86
2021/12/24 03:31:17;;;;;;;13.65;12.48;;;;;;;6.85;78.37;97790.88;4126559;28;20212;-87
2021/12/24 03:33:19;;;;;;;13.35;12.07;;;;;;;6.75;78.80;97787.16;4155394;28;20215;-86
2021/12/24 03:35:20;;;;;;;12.23;11.32;;;;;;;6.72;78.76;97801.22;4142307;28;20285;-86
2021/12/24 03:37:22;;;;;;;13.55;12.38;;;;;;;6.85;78.66;97795.47;4131932;28;20237;-87
2021/12/24 03:39:23;;;;;;;14.30;12.27;;;;;;;6.78;78.47;97801.06;4128901;28;20206;-87
2021/12/24 03:41:25;;;;;;;13.85;12.70;;;;;;;6.72;78.98;97793.06;4139075;28;20220;-86
2021/12/24 03:43:27;;;;;;;12.77;11.77;;;;;;;6.73;78.88;97789.25;4156512;28;20232;-86
2021/12/24 03:45:36;;;;;;;17.65;13.80;;;;;;;6.74;78.67;97774.59;4119897;28;20218;-86
2021/12/24 03:47:41;;;;;;;13.00;12.00;;;;;;;6.73;78.32;97775.66;4139987;28;20315;-86
2021/12/24 03:56:09;;;;;;;15.10;12.93;;;;;;;6.90;77.82;97779.25;4145455;28;20674;-86
2021/12/24 03:58:10;;;;;;;13.93;12.70;;;;;;;6.86;78.24;97776.19;4131347;28;20260;-86
2021/12/24 04:00:22;;;;;;;15.23;13.25;;;;;;;6.89;77.85;97783.06;4124376;28;20206;-86
2021/12/24 04:02:23;;;;;;;14.55;13.30;;;;;;;6.91;77.64;97784.47;4134557;28;20219;-87
2021/12/24 04:04:25;;;;;;;15.75;14.32;;;;;;;6.88;77.90;97787.66;4160178;28;20671;-87
2021/12/24 04:06:27;;;;;;;15.70;14.30;;;;;;;6.82;78.01;97793.25;4143285;28;20235;-86
2021/12/24 04:08:30;;;;;;;14.10;13.00;;;;;;;6.85;77.90;97793.59;4147171;28;20219;-86
2021/12/24 04:10:39;;;;;;;15.32;13.75;;;;;;;6.83;78.24;97778.59;4157495;28;20235;-88
2021/12/24 04:12:41;;;;;;;15.23;13.88;;;;;;;6.86;77.83;97778.09;4157257;28;20228;-87
2021/12/24 04:14:48;;;;;;;15.38;13.88;;;;;;;6.86;78.29;97778.09;4144811;28;20209;-86
2021/12/24 04:16:51;;;;;;;14.02;12.32;;;;;;;6.84;78.36;97778.34;4136802;28;20213;-86
2021/12/24 04:25:40;;;;;;;15.40;14.10;;;;;;;6.96;77.48;97781.00;4153630;28;20247;-87
2021/12/24 04:27:41;;;;;;;19.25;14.10;;;;;;;6.97;77.48;97779.94;4141604;28;20216;-85
2021/12/24 04:29:43;;;;;;;14.75;13.40;;;;;;;6.92;77.54;97780.66;4162627;28;20506;-87
2021/12/24 04:31:53;;;;;;;18.20;14.45;;;;;;;6.95;77.45;97773.91;4139081;28;20206;-86
2021/12/24 04:34:02;;;;;;;14.32;12.98;;;;;;;6.97;77.55;97774.47;4147269;28;20319;-86
2021/12/24 04:52:12;;;;;;;17.45;15.90;;;;;;;6.90;77.62;97757.50;4148031;28;20201;-87
2021/12/24 05:01:37;;;;;;;16.05;14.63;;;;;;;6.96;77.77;97756.53;4148261;28;20205;-85
2021/12/24 05:03:40;;;;;;;15.88;14.38;;;;;;;6.99;77.35;97761.47;4158570;28;20220;-86
2021/12/24 05:05:52;;;;;;;15.27;13.90;;;;;;;6.99;77.35;97767.72;4146852;28;20206;-85
2021/12/24 05:08:13;;;;;;;17.00;15.25;;;;;;;7.05;77.19;97765.91;4125836;28;20625;-84
2021/12/24 05:10:16;;;;;;;15.50;14.20;;;;;;;6.99;77.29;97761.47;4145854;28;20210;-85
2021/12/24 05:12:17;;;;;;;30.13;14.70;;;;;;;6.98;77.58;97757.94;4144656;28;20213;-86
2021/12/24 05:14:18;;;;;;;15.57;13.40;;;;;;;7.00;77.47;97754.94;4143673;28;20601;-86
2021/12/24 05:18:57;;;;;;;18.70;16.48;;;;;;;7.01;77.65;97762.88;4161817;28;20201;-86
2021/12/24 05:23:12;;;;;;;17.58;14.65;;;;;;;7.01;77.58;97762.88;4165189;28;20212;-86
2021/12/24 05:25:14;;;;;;;19.58;15.27;;;;;;;6.96;77.50;97767.41;4146135;28;20237;-86
2021/12/24 05:27:15;;;;;;;19.20;15.73;;;;;;;6.97;77.64;97760.88;4149371;28;20205;-86
2021/12/24 05:29:17;;;;;;;16.65;15.07;;;;;;;7.01;77.27;97756.59;4142445;28;20216;-85
2021/12/24 05:31:20;;;;;;;18.30;16.13;;;;;;;7.03;77.74;97762.63;4145878;28;20219;-85
2021/12/24 05:33:21;;;;;;;15.80;14.50;;;;;;;7.00;77.40;97768.53;4130164;28;20289;-86
2021/12/24 05:35:23;;;;;;;20.45;18.27;;;;;;;6.99;77.66;97767.72;4142453;28;20229;-87
2021/12/24 05:37:25;;;;;;;17.58;15.85;;;;;;;7.00;77.67;97757.66;4142204;28;20741;-85
2021/12/24 05:39:26;;;;;;;16.85;15.32;;;;;;;7.02;77.23;97764.50;4158674;28;20271;-85
2021/12/24 05:41:29;;;;;;;17.00;15.05;;;;;;;7.00;77.66;97761.22;4140295;28;20293;-85
2021/12/24 05:43:33;;;;;;;17.27;15.85;;;;;;;7.02;77.14;97766.41;4158751;28;20285;-87
2021/12/24 05:45:37;;;;;;;16.63;14.68;;;;;;;6.99;77.84;97767.72;4147442;28;20891;-86
2021/12/24 05:47:38;;;;;;;16.80;15.25;;;;;;;7.00;77.63;97763.94;4127471;28;20211;-85
2021/12/24 05:49:41;;;;;;;17.00;15.27;;;;;;;6.96;77.98;97767.41;4163374;28;20212;-88
2021/12/24 05:51:46;;;;;;;16.83;15.20;;;;;;;6.94;78.16;97762.19;4148508;28;20827;-86
2021/12/24 05:53:48;;;;;;;18.95;15.88;;;;;;;6.98;78.11;97759.81;4151461;28;20230;-87
2021/12/24 05:55:50;;;;;;;23.50;17.05;;;;;;;6.92;78.16;97766.22;4157535;28;20207;-86
2021/12/24 05:57:56;;;;;;;18.50;16.80;;;;;;;6.89;78.23;97769.44;4136100;28;20277;-86
2021/12/24 05:59:58;;;;;;;18.60;16.67;;;;;;;6.80;78.42;97770.91;4160951;28;20196;-86
2021/12/24 06:02:01;;;;;;;18.27;16.38;;;;;;;6.78;78.66;97773.06;4150291;28;20284;-87
2021/12/24 06:04:03;;;;;;;18.45;16.77;;;;;;;6.79;78.29;97775.53;4144685;28;20711;-86
2021/12/24 06:06:12;;;;;;;18.50;16.58;;;;;;;6.76;78.78;97777.91;4154131;28;20313;-87
2021/12/24 06:08:15;;;;;;;18.13;16.05;;;;;;;6.73;78.83;97770.22;4162711;28;20529;-86
2021/12/24 06:10:16;;;;;;;17.55;15.85;;;;;;;6.78;78.96;97781.19;4141216;28;20667;-87
2021/12/24 06:12:18;;;;;;;17.70;16.25;;;;;;;6.75;78.72;97785.22;4164292;28;20211;-87
2021/12/24 06:14:22;;;;;;;17.10;15.25;;;;;;;6.71;78.84;97785.97;4147076;28;20221;-85
2021/12/24 06:16:30;;;;;;;16.80;15.50;;;;;;;6.73;78.88;97778.38;4141474;28;20285;-85
2021/12/24 06:18:31;;;;;;;18.42;16.17;;;;;;;6.74;78.50;97785.47;4163232;28;20209;-86
2021/12/24 06:20:33;;;;;;;19.15;17.05;;;;;;;6.75;79.05;97781.72;4161617;28;20198;-85
2021/12/24 06:22:35;;;;;;;18.52;16.67;;;;;;;6.74;78.53;97785.47;4160011;28;20213;-87
2021/12/24 06:24:36;;;;;;;16.08;14.52;;;;;;;6.80;78.86;97784.50;4151620;28;20240;-86
2021/12/24 06:26:38;;;;;;;15.85;14.45;;;;;;;6.78;78.58;97784.75;4159588;28;20205;-86
2021/12/24 06:28:40;;;;;;;16.77;14.98;;;;;;;6.75;78.75;97779.78;4142139;28;20207;-85
2021/12/24 06:30:42;;;;;;;17.48;15.98;;;;;;;6.73;78.91;97784.66;4171269;28;20204;-86
2021/12/24 06:32:45;;;;;;;17.52;15.85;;;;;;;6.72;78.66;97783.00;4149882;28;20213;-85
2021/12/24 06:35:00;;;;;;;17.02;15.32;;;;;;;6.70;78.69;97789.75;4138548;28;20238;-85
2021/12/24 06:37:02;;;;;;;17.90;16.10;;;;;;;6.77;78.14;97787.72;4158544;28;20205;-87
2021/12/24 06:39:04;;;;;;;15.15;13.80;;;;;;;6.77;78.25;97785.00;4158289;28;20228;-86
2021/12/24 06:41:05;;;;;;;16.63;15.10;;;;;;;6.80;78.42;97788.06;4130758;28;20209;-86
2021/12/24 06:43:07;;;;;;;17.17;15.57;;;;;;;6.78;78.29;97781.19;4124672;28;20214;-86
2021/12/24 06:45:10;;;;;;;17.58;15.68;;;;;;;6.72;78.25;97772.13;4154941;28;20236;-85
2021/12/24 06:47:11;;;;;;;17.92;14.57;;;;;;;6.77;78.36;97776.84;4129357;28;20217;-86
2021/12/24 06:49:16;;;;;;;19.70;15.82;;;;;;;6.71;78.29;97783.25;4132674;28;20293;-86
2021/12/24 06:51:20;;;;;;;20.42;14.90;;;;;;;6.80;78.21;97787.22;4148087;28;20218;-86
2021/12/24 06:53:22;;;;;;;19.13;15.10;;;;;;;6.71;78.59;97780.53;4176534;28;20256;-85
2021/12/24 06:55:24;;;;;;;17.95;16.35;;;;;;;6.77;78.27;97779.56;4164607;28;20278;-86
2021/12/24 06:57:25;;;;;;;17.08;15.13;;;;;;;6.74;78.39;97766.44;4173580;28;20186;-85
2021/12/24 06:59:28;;;;;;;18.05;16.23;;;;;;;6.71;78.39;97765.06;4161282;28;20205;-86
2021/12/24 07:01:31;;;;;;;18.10;14.75;;;;;;;6.71;78.25;97758.78;4160779;28;20249;-87
2021/12/24 07:03:37;;;;;;;17.35;15.70;;;;;;;6.75;78.51;97757.25;4150220;28;20213;-87
2021/12/24 07:05:44;;;;;;;15.35;13.85;;;;;;;6.73;78.47;97762.06;4139843;28;20225;-87
2021/12/24 07:07:46;;;;;;;18.00;16.20;;;;;;;6.69;78.62;97750.88;4164380;28;20211;-87
2021/12/24 07:09:49;;;;;;;16.50;15.07;;;;;;;6.71;78.42;97758.78;4140770;28;20277;-85
2021/12/24 07:11:53;;;;;;;16.85;15.38;;;;;;;6.65;78.88;97773.34;4134150;28;20233;-87
2021/12/24 07:13:55;;;;;;;17.77;16.08;;;;;;;6.68;79.01;97775.59;4150066;28;20217;-86
2021/12/24 07:15:57;;;;;;;18.42;16.70;;;;;;;6.73;78.66;97778.38;4166220;28;20284;-87
2021/12/24 07:17:58;;;;;;;21.85;15.10;;;;;;;6.70;78.58;97770.72;4136285;28;20221;-87
2021/12/24 07:20:00;;;;;;;16.65;15.00;;;;;;;6.73;79.08;97778.38;4163553;28;20216;-86
2021/12/24 07:22:02;;;;;;;18.50;16.80;;;;;;;6.72;79.11;97776.75;4152510;28;20662;-86
2021/12/24 07:24:04;;;;;;;20.63;16.08;;;;;;;6.69;79.03;97771.81;4148507;28;20226;-86
2021/12/24 07:26:07;;;;;;;17.65;14.38;;;;;;;6.70;78.91;97776.16;4135885;28;20245;-86
2021/12/24 07:28:08;;;;;;;18.25;16.00;;;;;;;6.59;79.89;97764.28;4134807;28;20208;-86
2021/12/24 07:30:12;;;;;;;17.48;16.02;;;;;;;6.67;79.34;97763.03;4143818;28;20212;-87
2021/12/24 07:32:16;;;;;;;19.42;16.08;;;;;;;6.67;79.54;97763.88;4148241;28;20232;-86
2021/12/24 07:34:18;;;;;;;17.55;15.98;;;;;;;6.64;79.80;97763.53;4143737;28;20658;-86
2021/12/24 07:36:19;;;;;;;16.88;14.43;;;;;;;6.75;79.10;97776.28;4151320;28;20265;-86
2021/12/24 07:38:22;;;;;;;19.02;17.13;;;;;;;6.63;80.02;97773.59;4148393;28;20235;-86
2021/12/24 07:40:26;;;;;;;18.40;16.60;;;;;;;6.70;79.74;97762.56;4147306;28;20201;-86
2021/12/24 07:42:28;;;;;;;18.65;16.85;;;;;;;6.68;79.41;97760.09;4141691;28;20291;-87
2021/12/24 07:44:33;;;;;;;20.95;16.60;;;;;;;6.65;79.71;97754.31;4149328;28;20316;-86
2021/12/24 07:46:45;;;;;;;17.90;16.15;;;;;;;6.64;79.80;97753.50;4141629;28;20234;-85
2021/12/24 07:48:49;;;;;;;19.60;16.85;;;;;;;6.69;79.70;97771.81;4136779;28;20297;-85
2021/12/24 07:52:53;;;;;;;19.55;17.35;;;;;;;6.65;80.18;97765.19;4143044;28;20265;-85
2021/12/24 07:54:55;;;;;;;17.15;15.65;;;;;;;6.65;80.05;97770.63;4148322;28;20220;-86
2021/12/24 07:57:17;;;;;;;21.35;15.65;;;;;;;6.65;80.10;97757.88;4154223;28;20248;-86
2021/12/24 07:59:20;;;;;;;18.25;16.58;;;;;;;6.66;79.96;97773.13;4139118;28;20237;-86
2021/12/24 08:01:28;;;;;;;19.20;16.10;;;;;;;6.60;80.31;97763.22;4152174;28;20232;-86
2021/12/24 08:03:31;;;;;;;18.05;14.73;;;;;;;6.57;80.19;97768.31;4133279;28;20354;-86
2021/12/24 08:05:35;;;;;;;19.02;17.00;;;;;;;6.57;80.00;97769.13;4164407;28;20776;-86
2021/12/24 08:07:37;;;;;;;24.30;17.60;;;;;;;6.57;80.16;97768.31;4168559;28;20209;-86
2021/12/24 08:09:38;;;;;;;25.67;17.63;;;;;;;6.63;80.04;97767.34;4167502;28;20211;-85
2021/12/24 08:11:40;;;;;;;17.77;15.98;;;;;;;6.61;80.06;97774.88;4146107;28;20882;-86
2021/12/24 08:13:42;;;;;;;18.35;16.67;;;;;;;6.56;80.15;97777.53;4153568;28;20229;-86
2021/12/24 08:15:48;;;;;;;23.52;15.80;;;;;;;6.60;80.01;97773.25;4150449;28;20202;-86
2021/12/24 08:17:49;;;;;;;16.00;14.38;;;;;;;6.53;80.03;97778.84;4168413;28;20288;-87
2021/12/24 08:19:51;;;;;;;20.65;17.08;;;;;;;6.52;80.18;97779.06;4149244;28;20783;-86
2021/12/24 08:21:53;;;;;;;16.58;14.88;;;;;;;6.58;80.09;97775.38;4178577;28;20287;-86
2021/12/24 08:24:01;;;;;;;17.30;15.00;;;;;;;6.68;79.83;97772.88;4163557;28;20291;-85
2021/12/24 08:26:04;;;;;;;16.60;15.18;;;;;;;6.64;80.03;97779.84;4145382;28;20202;-86
2021/12/24 08:28:06;;;;;;;16.98;15.43;;;;;;;6.52;80.35;97770.91;4161376;28;20316;-86
2021/12/24 08:30:10;;;;;;;16.20;14.80;;;;;;;6.57;80.28;97768.31;4169041;28;20212;-85
2021/12/24 08:32:12;;;;;;;19.17;14.95;;;;;;;6.55;80.36;97759.59;4167549;28;20215;-86
2021/12/24 08:34:16;;;;;;;17.65;15.93;;;;;;;6.56;80.22;97756.59;4167098;28;20311;-86
2021/12/24 08:36:18;;;;;;;17.85;16.25;;;;;;;6.58;80.40;97769.94;4147783;28;20212;-86
2021/12/24 08:38:21;;;;;;;19.92;14.90;;;;;;;6.56;80.26;97761.22;4144239;28;20214;-85
2021/12/24 08:40:22;;;;;;;16.85;15.35;;;;;;;6.58;80.67;97762.63;4133273;28;20238;-85
2021/12/24 08:42:24;;;;;;;19.15;17.13;;;;;;;6.61;80.14;97758.56;4147399;28;20239;-85
2021/12/24 08:44:31;;;;;;;17.27;15.55;;;;;;;6.56;80.39;97750.34;4163589;28;20310;-85
2021/12/24 08:46:36;;;;;;;22.95;17.90;;;;;;;6.58;80.10;97753.66;4161143;28;20763;-86
2021/12/24 08:48:38;;;;;;;18.20;16.52;;;;;;;6.56;80.27;97750.34;4143480;28;20320;-85
2021/12/24 08:50:40;;;;;;;19.30;17.35;;;;;;;6.61;80.01;97742.28;4145006;28;20714;-85
2021/12/24 08:52:44;;;;;;;19.70;17.85;;;;;;;6.61;80.57;97742.28;4128973;28;20187;-86
2021/12/24 08:54:46;;;;;;;20.38;18.45;;;;;;;6.65;80.19;97748.88;4129979;28;20218;-86
2021/12/24 08:56:48;;;;;;;20.55;18.50;;;;;;;6.63;80.43;97745.59;4149092;28;20202;-86
2021/12/24 08:58:52;;;;;;;18.20;16.45;;;;;;;6.63;80.46;97748.31;4149265;28;20700;-86
2021/12/24 09:00:54;;;;;;;22.13;16.98;;;;;;;6.58;80.60;97753.66;4151440;28;20599;-86
2021/12/24 09:02:56;;;;;;;18.95;17.08;;;;;;;6.63;80.78;97751.03;4166594;28;20228;-86
2021/12/24 09:04:59;;;;;;;20.23;18.05;;;;;;;6.72;80.44;97744.97;4165916;28;20737;-86
2021/12/24 09:07:01;;;;;;;19.17;17.70;;;;;;;6.62;80.24;97738.50;4151136;28;20253;-86
2021/12/24 09:09:10;;;;;;;21.92;19.65;;;;;;;6.64;80.27;97741.81;4147655;28;20690;-85
2021/12/24 09:11:12;;;;;;;17.63;15.88;;;;;;;6.62;80.41;97739.31;4146690;28;20237;-85
2021/12/24 09:13:13;;;;;;;20.08;18.33;;;;;;;6.59;80.86;97744.41;4162533;28;20212;-86
2021/12/24 09:15:19;;;;;;;19.75;17.55;;;;;;;6.62;80.54;97746.66;4146033;28;20256;-85
2021/12/24 09:17:22;;;;;;;20.60;17.35;;;;;;;6.57;80.83;97741.13;4162596;28;20294;-86
2021/12/24 09:19:27;;;;;;;25.83;18.02;;;;;;;6.52;80.87;97738.31;4144130;28;20211;-86
2021/12/24 09:21:29;;;;;;;20.48;18.48;;;;;;;6.56;80.84;97740.28;4149550;28;20214;-85
2021/12/24 09:23:31;;;;;;;19.73;17.80;;;;;;;6.55;81.14;97743.28;4166662;28;20280;-86
2021/12/24 09:25:50;;;;;;;20.35;17.83;;;;;;;6.63;80.30;97742.88;4168415;28;20193;-86
2021/12/24 09:27:52;;;;;;;17.90;16.05;;;;;;;6.63;80.47;97745.59;4150460;28;20186;-88
2021/12/24 09:29:54;;;;;;;20.67;18.88;;;;;;;6.57;80.97;97743.84;4162966;28;20188;-87
2021/12/24 09:31:59;;;;;;;20.92;18.58;;;;;;;6.53;80.88;97745.38;4172058;28;20211;-85
2021/12/24 09:34:01;;;;;;;19.67;17.95;;;;;;;6.60;80.66;97743.34;4171213;28;20223;-86
2021/12/24 09:36:04;;;;;;;23.38;18.83;;;;;;;6.59;80.72;97734.38;4140826;28;20626;-86
2021/12/24 09:38:05;;;;;;;24.50;18.98;;;;;;;6.59;80.66;97744.41;4137014;28;20222;-87
2021/12/24 09:40:09;;;;;;;17.83;16.33;;;;;;;6.60;80.83;97738.75;4129860;28;20220;-87
2021/12/24 09:42:11;;;;;;;21.05;16.67;;;;;;;6.61;80.73;97743.09;4165830;28;20220;-86
2021/12/24 09:44:13;;;;;;;17.75;16.02;;;;;;;6.60;81.31;97752.34;4164261;28;20221;-87
2021/12/24 09:46:20;;;;;;;20.33;18.10;;;;;;;6.60;81.30;97746.06;4150968;28;20197;-87
2021/12/24 09:48:22;;;;;;;17.15;15.65;;;;;;;6.58;81.14;97757.19;4165620;28;20205;-85
2021/12/24 09:50:25;;;;;;;18.08;16.58;;;;;;;6.59;81.16;97749.84;4148083;28;20209;-88
2021/12/24 09:52:27;;;;;;;18.67;17.17;;;;;;;6.65;81.02;97748.88;4146825;28;20229;-84
2021/12/24 09:54:29;;;;;;;20.92;18.50;;;;;;;6.61;80.88;97747.72;4142085;28;20606;-85
2021/12/24 09:56:34;;;;;;;18.35;16.85;;;;;;;6.59;81.40;97749.84;4128859;28;20214;-85
2021/12/24 09:58:36;;;;;;;28.08;21.08;;;;;;;6.58;80.89;97749.06;4143469;28;20212;-85
2021/12/24 10:00:45;;;;;;;19.38;17.67;;;;;;;6.61;81.16;97747.72;4140904;28;20325;-85
2021/12/24 10:02:50;;;;;;;20.00;18.10;;;;;;;6.61;81.23;97743.09;4134959;28;20228;-85
2021/12/24 10:04:55;;;;;;;18.80;17.02;;;;;;;6.70;80.88;97751.69;4145410;28;20225;-86
2021/12/24 10:06:59;;;;;;;19.27;17.35;;;;;;;6.65;81.28;97748.88;4161182;28;20209;-86
2021/12/24 10:09:12;;;;;;;20.02;17.83;;;;;;;6.62;80.82;97750.19;4136372;28;20210;-86
2021/12/24 10:11:23;;;;;;;21.45;19.27;;;;;;;6.52;81.42;97750.03;4143645;28;20705;-87
2021/12/24 10:13:33;;;;;;;22.02;19.67;;;;;;;6.52;81.53;97743.75;4141586;28;20292;-87
2021/12/24 10:15:54;;;;;;;19.65;17.60;;;;;;;6.55;81.40;97738.66;4159831;28;20208;-86
2021/12/24 10:17:57;;;;;;;16.90;15.70;;;;;;;6.55;81.46;97743.28;4156009;28;20287;-87
2021/12/24 10:20:05;;;;;;;15.57;14.30;;;;;;;6.58;81.80;97743.63;4131303;28;20214;-86
2021/12/24 10:22:09;;;;;;;14.27;13.07;;;;;;;6.67;81.13;97742.13;4133582;28;20209;-86
2021/12/24 10:24:30;;;;;;;18.02;15.35;;;;;;;6.65;81.49;97743.44;4141428;28;20392;-87
2021/12/24 10:26:34;;;;;;;13.52;12.23;;;;;;;6.80;80.81;97730.13;4159224;28;20209;-87
2021/12/24 10:28:54;;;;;;;12.85;11.85;;;;;;;6.72;80.96;97738.69;4139692;28;20317;-86
2021/12/24 10:31:02;;;;;;;14.65;13.45;;;;;;;6.76;81.05;97731.69;4141860;28;20208;-87
2021/12/24 10:33:09;;;;;;;15.20;13.73;;;;;;;6.73;81.55;97732.16;4131047;28;20217;-86
2021/12/24 10:35:21;;;;;;;14.43;13.00;;;;;;;6.80;80.62;97730.13;4143467;28;20304;-86
2021/12/24 10:37:31;;;;;;;15.27;12.18;;;;;;;6.78;81.19;97733.09;4145712;28;20210;-86
2021/12/24 10:39:40;;;;;;;12.77;11.68;;;;;;;6.84;80.83;97736.72;4128078;28;20237;-87
2021/12/24 10:41:44;;;;;;;14.05;13.05;;;;;;;6.72;80.91;97733.25;4141594;28;20209;-86
2021/12/24 10:43:46;;;;;;;13.90;12.68;;;;;;;6.80;81.23;97728.25;4140424;28;20212;-85
2021/12/24 10:45:58;;;;;;;13.75;12.55;;;;;;;6.68;81.34;97721.22;4148555;28;20328;-86
2021/12/24 10:48:16;;;;;;;13.05;12.05;;;;;;;6.77;81.52;97720.56;4144322;28;20220;-86
2021/12/24 10:52:43;;;;;;;13.95;12.88;;;;;;;6.70;81.46;97721.81;4154667;28;20204;-86
2021/12/24 10:54:57;;;;;;;12.88;11.88;;;;;;;6.71;82.02;97728.88;4142784;28;20227;-86
2021/12/24 10:57:15;;;;;;;13.52;12.38;;;;;;;6.74;81.59;97717.50;4164043;28;20573;-85
2021/12/24 10:59:39;;;;;;;13.38;12.38;;;;;;;6.73;81.90;97713.97;4161496;28;20235;-86
2021/12/24 11:01:44;;;;;;;13.13;12.07;;;;;;;6.71;81.24;97713.41;4135463;28;20229;-86
2021/12/24 11:03:49;;;;;;;13.40;12.23;;;;;;;6.69;82.03;97712.00;4147073;28;20269;-88
2021/12/24 11:06:08;;;;;;;14.07;12.88;;;;;;;6.73;82.04;97713.97;4130178;28;20249;-84
2021/12/24 11:08:27;;;;;;;14.38;13.05;;;;;;;6.77;81.38;97720.56;4144494;28;20206;-85
2021/12/24 11:10:31;;;;;;;11.23;10.32;;;;;;;6.75;81.69;97711.84;4125783;28;20222;-86
2021/12/24 11:12:37;;;;;;;13.38;12.20;;;;;;;6.75;81.92;97705.59;4145743;28;20897;-84